Time;durP1;ratioP1;P1;durP2;ratioP2;P2;SDS_P1;SDS_P2;PMS_P1;PMS_P2;Temp;Humidity;BMP_temperature;BMP_pressure;BME280_temperature;BME280_humidity;BME280_pressure;Samples;Min_cycle;Max_cycle;Signal;HPM_P1;HPM_P2
2023/03/09 00:02:13;;;;;;;2.30;1.38;;;;;;;7.29;86.94;95459.91;10461686;28;20052;-76
2023/03/09 00:07:34;;;;;;;5.10;1.25;;;;;;;7.28;86.75;95459.19;10461588;28;20051;-75
2023/03/09 00:12:54;;;;;;;3.33;1.08;;;;;;;7.24;87.32;95461.06;10488441;28;20044;-76
2023/03/09 00:18:22;;;;;;;3.05;0.95;;;;;;;7.25;87.99;95462.50;10475205;28;20090;-75
2023/03/09 00:23:43;;;;;;;1.60;0.80;;;;;;;7.25;87.41;95443.09;10474606;28;20051;-76
2023/03/09 00:29:03;;;;;;;2.55;0.70;;;;;;;7.23;87.47;95440.19;10474061;28;20119;-75
2023/03/09 00:34:24;;;;;;;2.80;0.73;;;;;;;7.17;87.73;95441.38;10473878;28;20047;-76
2023/03/09 00:39:46;;;;;;;1.60;0.70;;;;;;;7.17;87.63;95441.38;10451695;28;20033;-76
2023/03/09 00:45:07;;;;;;;1.83;0.70;;;;;;;7.14;87.85;95430.81;10490868;28;20041;-76
2023/03/09 00:50:29;;;;;;;1.92;0.80;;;;;;;7.10;88.60;95427.88;10477223;28;20039;-76
2023/03/09 00:55:49;;;;;;;1.98;0.80;;;;;;;7.08;88.45;95425.72;10484475;28;20048;-76
2023/03/09 01:01:11;;;;;;;2.08;0.70;;;;;;;7.07;88.59;95410.44;10482126;28;20060;-76
2023/03/09 01:06:33;;;;;;;3.03;1.10;;;;;;;7.05;88.55;95415.91;10505265;28;20044;-76
2023/03/09 01:11:54;;;;;;;2.65;0.90;;;;;;;7.06;88.60;95420.09;10495187;28;20052;-76
2023/03/09 01:17:15;;;;;;;1.48;0.70;;;;;;;7.03;88.94;95401.91;10476785;28;20439;-76
2023/03/09 01:22:37;;;;;;;1.50;0.60;;;;;;;7.03;88.61;95396.38;10476744;28;20123;-75
2023/03/09 01:27:58;;;;;;;1.65;0.70;;;;;;;7.05;88.53;95404.09;10482072;28;20048;-76
2023/03/09 01:33:19;;;;;;;1.83;0.65;;;;;;;7.05;88.63;95402.03;10478549;28;20441;-75
2023/03/09 01:38:40;;;;;;;1.63;0.60;;;;;;;7.05;88.67;95401.31;10481689;28;20047;-75
2023/03/09 01:44:01;;;;;;;1.13;0.47;;;;;;;7.04;88.72;95383.94;10490236;28;20089;-76
2023/03/09 01:49:34;;;;;;;2.10;0.52;;;;;;;7.05;88.67;95385.38;10482302;28;20122;-75
2023/03/09 01:54:58;;;;;;;1.10;0.50;;;;;;;7.07;88.39;95362.56;10500796;28;20036;-75
2023/03/09 02:00:21;;;;;;;0.75;0.38;;;;;;;7.04;88.36;95358.97;10476282;28;20044;-76
2023/03/09 02:06:02;;;;;;;1.13;0.50;;;;;;;7.07;88.04;95359.78;10480731;28;20048;-75
2023/03/09 02:11:23;;;;;;;1.08;0.40;;;;;;;7.08;88.46;95361.91;10494814;28;20053;-76
2023/03/09 02:16:44;;;;;;;0.77;0.50;;;;;;;7.08;88.28;95361.91;10478179;28;20488;-76
2023/03/09 02:22:07;;;;;;;2.05;0.50;;;;;;;7.07;88.09;95346.63;10467862;28;20477;-75
2023/03/09 02:27:28;;;;;;;2.30;0.50;;;;;;;7.07;88.29;95346.63;10494905;28;20036;-75
2023/03/09 02:32:49;;;;;;;1.52;0.50;;;;;;;7.06;88.02;95336.88;10503102;28;20036;-76
2023/03/09 02:38:12;;;;;;;2.95;0.40;;;;;;;7.05;87.82;95332.69;10495337;28;20040;-75
2023/03/09 02:43:36;;;;;;;0.95;0.47;;;;;;;7.06;88.09;95331.34;10479849;28;20044;-75
2023/03/09 02:48:58;;;;;;;1.63;0.30;;;;;;;7.08;87.72;95317.53;10492514;28;20072;-76
2023/03/09 02:54:19;;;;;;;1.17;0.30;;;;;;;7.12;87.64;95312.16;10475022;28;20036;-76
2023/03/09 02:59:41;;;;;;;0.95;0.20;;;;;;;7.08;87.60;95303.66;10487908;28;20371;-75
2023/03/09 03:05:04;;;;;;;0.73;0.25;;;;;;;7.07;87.23;95307.78;10474354;28;20044;-76
2023/03/09 03:10:25;;;;;;;0.35;0.20;;;;;;;7.03;87.33;95310.38;10458173;28;20176;-76
2023/03/09 03:15:48;;;;;;;0.70;0.10;;;;;;;7.08;87.50;95314.06;10465262;28;20063;-75
2023/03/09 03:21:09;;;;;;;0.40;0.10;;;;;;;7.13;87.69;95305.25;10480986;28;20044;-76
2023/03/09 03:26:35;;;;;;;0.20;0.10;;;;;;;7.06;87.20;95294.56;10483571;28;20110;-76
2023/03/09 03:32:02;;;;;;;0.20;0.10;;;;;;;7.06;87.67;95298.03;10477238;28;20040;-76
2023/03/09 03:37:23;;;;;;;0.28;0.10;;;;;;;7.13;87.53;95293.44;10487021;28;20341;-76
2023/03/09 03:42:44;;;;;;;0.38;0.10;;;;;;;7.21;87.11;95290.28;10495922;28;20075;-76
2023/03/09 03:48:06;;;;;;;0.43;0.10;;;;;;;7.20;87.21;95289.56;10484096;28;20530;-77
2023/03/09 03:53:27;;;;;;;1.15;0.20;;;;;;;7.21;87.77;95295.84;10470323;28;20452;-76
2023/03/09 03:58:49;;;;;;;0.85;0.32;;;;;;;7.25;87.38;95296.03;10475888;28;20045;-76
2023/03/09 04:04:11;;;;;;;1.27;0.20;;;;;;;7.24;87.37;95289.03;10461813;28;20418;-76
2023/03/09 04:09:38;;;;;;;0.75;0.17;;;;;;;7.24;87.89;95283.47;10466709;28;20394;-77
2023/03/09 04:14:59;;;;;;;0.85;0.20;;;;;;;7.23;88.49;95284.81;10480133;28;20040;-76
2023/03/09 04:20:20;;;;;;;0.85;0.10;;;;;;;7.21;88.27;95273.66;10506754;28;20047;-76
2023/03/09 04:25:42;;;;;;;0.60;0.20;;;;;;;7.14;89.04;95251.22;10507018;28;20043;-77
2023/03/09 04:31:04;;;;;;;0.52;0.20;;;;;;;7.07;89.57;95244.00;10492775;28;20481;-76
2023/03/09 04:36:27;;;;;;;0.77;0.27;;;;;;;7.03;88.92;95224.41;10493782;28;20043;-77
2023/03/09 04:41:50;;;;;;;2.30;0.28;;;;;;;7.04;89.63;95228.59;10479536;28;20274;-77
2023/03/09 04:47:12;;;;;;;0.80;0.20;;;;;;;7.09;90.20;95235.75;10505727;28;20040;-77
2023/03/09 04:52:34;;;;;;;0.93;0.30;;;;;;;7.15;90.34;95232.50;10492060;28;20330;-76
2023/03/09 04:57:55;;;;;;;1.17;0.20;;;;;;;7.21;90.73;95229.97;10479084;28;20505;-77
2023/03/09 05:03:17;;;;;;;3.38;0.30;;;;;;;7.24;90.78;95233.53;10471620;28;20499;-77
2023/03/09 05:08:43;;;;;;;0.60;0.20;;;;;;;7.32;90.45;95233.84;10479885;28;20066;-77
2023/03/09 05:14:04;;;;;;;1.90;0.20;;;;;;;7.36;90.72;95231.25;10482499;28;20055;-77
2023/03/09 05:19:26;;;;;;;0.98;0.10;;;;;;;7.38;90.43;95243.13;10475925;28;20556;-77
2023/03/09 05:24:51;;;;;;;1.35;0.10;;;;;;;7.41;89.96;95246.69;10482344;28;20040;-77
2023/03/09 05:30:12;;;;;;;1.65;0.10;;;;;;;7.41;90.50;95235.59;10490226;28;20040;-76
2023/03/09 05:35:35;;;;;;;0.30;0.10;;;;;;;7.43;89.59;95241.97;10506652;28;20413;-77
2023/03/09 05:40:57;;;;;;;1.38;0.10;;;;;;;7.44;89.73;95232.28;10499882;28;20071;-77
2023/03/09 05:46:18;;;;;;;0.95;0.10;;;;;;;7.46;89.78;95243.47;10522732;28;20484;-77
2023/03/09 05:51:40;;;;;;;1.08;0.10;;;;;;;7.51;89.51;95243.59;10498762;28;20401;-76
2023/03/09 05:57:01;;;;;;;0.70;0.10;;;;;;;7.52;89.46;95258.91;10512389;28;20064;-77
2023/03/09 06:02:23;;;;;;;0.22;0.08;;;;;;;7.59;89.28;95263.34;10498599;28;20060;-77
2023/03/09 06:07:45;;;;;;;0.35;0.10;;;;;;;7.63;88.54;95261.47;10512029;28;20040;-77
2023/03/09 06:13:07;;;;;;;0.50;0.20;;;;;;;7.69;87.99;95272.78;10498540;28;20039;-77
2023/03/09 06:18:28;;;;;;;0.50;0.20;;;;;;;7.69;87.96;95281.13;10498001;28;20485;-76
2023/03/09 06:23:55;;;;;;;1.52;0.10;;;;;;;7.71;87.90;95289.53;10498502;28;20048;-77
2023/03/09 06:29:17;;;;;;;0.63;0.30;;;;;;;7.72;87.56;95301.34;10511808;28;20105;-77
2023/03/09 06:34:40;;;;;;;1.05;0.20;;;;;;;7.78;87.52;95315.47;10498153;28;20123;-77
2023/03/09 06:40:06;;;;;;;0.32;0.10;;;;;;;7.81;87.20;95333.66;10497782;28;20040;-76
2023/03/09 06:45:27;;;;;;;2.90;1.65;;;;;;;7.89;87.06;95336.03;10493904;28;20551;-75
2023/03/09 06:50:48;;;;;;;1.05;0.10;;;;;;;8.11;86.42;95348.03;10495759;28;20470;-75
2023/03/09 06:56:10;;;;;;;0.40;0.10;;;;;;;8.35;85.42;95361.44;10509970;28;20048;-76
2023/03/09 07:01:31;;;;;;;1.30;0.10;;;;;;;8.36;84.21;95363.56;10496903;28;20055;-76
2023/03/09 07:06:54;;;;;;;2.15;0.10;;;;;;;8.25;84.12;95376.34;10496659;28;20078;-75
2023/03/09 07:12:15;;;;;;;0.50;0.10;;;;;;;8.17;84.10;95384.38;10496804;28;20040;-76
2023/03/09 07:17:36;;;;;;;0.80;0.10;;;;;;;8.10;84.29;95404.91;10511011;28;20047;-76
2023/03/09 07:22:57;;;;;;;0.55;0.10;;;;;;;8.14;84.12;95410.66;10510647;28;20048;-75
2023/03/09 07:28:18;;;;;;;1.23;0.20;;;;;;;8.07;83.34;95422.88;10497455;28;20036;-75
2023/03/09 07:33:39;;;;;;;1.20;0.10;;;;;;;8.11;83.59;95445.28;10511738;28;20048;-76
2023/03/09 07:39:00;;;;;;;0.43;0.10;;;;;;;8.04;83.60;95463.03;10494440;28;20043;-76
2023/03/09 07:44:21;;;;;;;0.80;0.20;;;;;;;8.06;83.48;95488.13;10482440;28;20122;-77
2023/03/09 07:49:42;;;;;;;0.68;0.20;;;;;;;8.15;83.15;95506.56;10496550;28;20485;-77
2023/03/09 07:55:03;;;;;;;1.38;0.25;;;;;;;8.51;82.83;95509.41;10481826;28;20094;-77
2023/03/09 08:00:27;;;;;;;0.30;0.10;;;;;;;8.90;81.57;95542.22;10509599;28;20393;-76
2023/03/09 08:05:55;;;;;;;0.30;0.10;;;;;;;9.39;79.92;95536.41;10511129;28;20453;-77
2023/03/09 08:11:16;;;;;;;1.25;0.20;;;;;;;10.25;78.58;95567.28;10517542;28;20044;-78
2023/03/09 08:16:37;;;;;;;1.33;0.30;;;;;;;11.93;75.63;95590.59;10505177;28;20048;-79
2023/03/09 08:21:58;;;;;;;1.48;0.20;;;;;;;13.04;70.71;95615.16;10506808;28;20097;-79
2023/03/09 08:27:19;;;;;;;0.50;0.20;;;;;;;12.25;70.10;95635.53;10533245;28;20036;-78
2023/03/09 08:32:40;;;;;;;1.70;0.10;;;;;;;11.52;69.72;95661.34;10504929;28;20485;-78
2023/03/09 08:38:01;;;;;;;1.98;0.30;;;;;;;12.03;72.06;95671.97;10519637;28;20040;-78
2023/03/09 08:43:21;;;;;;;0.57;0.20;;;;;;;15.16;67.36;95673.50;10505472;28;20451;-79
2023/03/09 08:48:42;;;;;;;0.57;0.17;;;;;;;20.73;59.95;95694.66;10530553;28;20047;-77
2023/03/09 08:54:03;;;;;;;1.05;0.10;;;;;;;22.44;49.09;95702.56;10500781;28;20044;-78
2023/03/09 08:59:24;;;;;;;2.60;0.40;;;;;;;27.57;40.22;95716.84;10528826;28;20531;-80
2023/03/09 09:04:45;;;;;;;1.98;0.20;;;;;;;33.35;34.30;95734.88;10543646;28;20181;-81
2023/03/09 09:10:06;;;;;;;0.73;0.20;;;;;;;37.15;27.63;95748.47;10528299;28;20040;-81
2023/03/09 09:15:29;;;;;;;1.38;0.10;;;;;;;37.53;24.54;95759.63;10528302;28;20047;-81
2023/03/09 09:20:50;;;;;;;0.10;0.10;;;;;;;39.33;20.08;95767.47;10513883;28;20123;-84
2023/03/09 09:26:17;;;;;;;0.25;0.10;;;;;;;34.89;19.71;95777.53;10513582;28;20051;-80
2023/03/09 09:31:38;;;;;;;0.40;0.10;;;;;;;31.16;21.95;95782.38;10500872;28;20064;-80
2023/03/09 09:37:03;;;;;;;0.10;0.05;;;;;;;32.36;22.48;95796.28;10500039;28;20055;-81
2023/03/09 09:42:35;;;;;;;0.50;0.20;;;;;;;30.31;21.37;95815.50;10513449;28;20044;-81
2023/03/09 09:47:56;;;;;;;0.38;0.10;;;;;;;29.24;22.64;95823.88;10513107;28;20177;-80
2023/03/09 09:53:36;;;;;;;0.30;0.08;;;;;;;26.14;24.40;95825.91;10498640;28;20040;-79
2023/03/09 09:59:01;;;;;;;0.77;0.20;;;;;;;25.08;25.75;95862.44;10526326;28;20074;-80
2023/03/09 10:04:33;;;;;;;3.05;0.20;;;;;;;25.44;27.95;95866.03;10498929;28;20082;-80
2023/03/09 10:10:00;;;;;;;0.50;0.00;;;;;;;27.34;24.68;95872.22;10499581;28;20063;-80
2023/03/09 10:15:26;;;;;;;0.20;0.10;;;;;;;25.33;27.04;95897.66;10498827;28;20047;-80
2023/03/09 10:20:52;;;;;;;0.52;0.20;;;;;;;23.53;28.26;95895.47;10513005;28;20489;-79
2023/03/09 10:26:43;;;;;;;0.50;0.10;;;;;;;20.10;33.00;95910.09;10497516;28;20087;-79
2023/03/09 10:32:07;;;;;;;0.75;0.10;;;;;;;17.78;36.81;95906.59;10494240;28;20040;-79
2023/03/09 10:37:33;;;;;;;0.63;0.10;;;;;;;16.31;39.67;95913.09;10442506;28;20461;-79
2023/03/09 10:42:56;;;;;;;1.83;0.20;;;;;;;15.51;40.21;95927.09;10456577;28;20055;-77
2023/03/09 10:48:24;;;;;;;0.53;0.20;;;;;;;15.36;42.83;95914.88;10458512;28;20445;-79
2023/03/09 10:53:48;;;;;;;0.73;0.20;;;;;;;15.52;42.24;95927.81;10459190;28;20297;-77
2023/03/09 10:59:18;;;;;;;0.63;0.10;;;;;;;15.32;44.26;95928.13;10464486;28;20036;-78
2023/03/09 11:04:39;;;;;;;0.68;0.20;;;;;;;15.89;44.49;95940.50;10509142;28;20052;-78
2023/03/09 11:10:03;;;;;;;0.90;0.20;;;;;;;15.12;45.56;95954.44;10512420;28;20044;-77
2023/03/09 11:15:29;;;;;;;1.88;0.20;;;;;;;14.04;49.55;95954.69;10498029;28;20093;-78
2023/03/09 11:20:53;;;;;;;1.13;0.30;;;;;;;14.68;50.38;95962.59;10506442;28;20089;-78
2023/03/09 11:26:38;;;;;;;0.82;0.20;;;;;;;15.23;51.40;95954.63;10506524;28;20044;-79
2023/03/09 11:31:59;;;;;;;0.73;0.25;;;;;;;16.55;49.61;95948.66;10507256;28;20390;-78
2023/03/09 11:37:47;;;;;;;0.60;0.20;;;;;;;17.17;48.60;95962.25;10521615;28;20044;-79
2023/03/09 11:43:19;;;;;;;0.47;0.10;;;;;;;16.47;48.59;95973.84;10540128;28;20043;-79
2023/03/09 11:48:44;;;;;;;0.90;0.10;;;;;;;15.21;50.13;95958.13;10512367;28;20040;-76
2023/03/09 11:54:05;;;;;;;0.88;0.20;;;;;;;14.63;52.76;95969.47;10512417;28;20044;-76
2023/03/09 11:59:48;;;;;;;1.92;0.30;;;;;;;15.12;54.04;95971.28;10535967;28;20089;-76
2023/03/09 12:05:14;;;;;;;1.38;0.20;;;;;;;16.22;52.18;95967.81;10534574;28;20125;-76
2023/03/09 12:10:44;;;;;;;1.15;0.22;;;;;;;15.78;50.78;95958.56;10523446;28;20044;-76
2023/03/09 12:16:09;;;;;;;1.02;0.20;;;;;;;15.74;51.56;95962.75;10537908;28;20410;-76
2023/03/09 12:21:35;;;;;;;1.33;0.32;;;;;;;16.21;50.45;95960.78;10538130;28;20040;-76
2023/03/09 12:27:02;;;;;;;1.77;0.20;;;;;;;16.92;49.15;95969.66;10495425;28;20051;-76
2023/03/09 12:32:28;;;;;;;4.70;0.28;;;;;;;16.65;48.16;95951.63;10531712;28;20086;-75
2023/03/09 12:37:59;;;;;;;0.98;0.20;;;;;;;16.31;48.50;95963.06;10530300;28;20090;-75
2023/03/09 12:43:21;;;;;;;1.98;0.20;;;;;;;15.82;48.25;95948.09;10516970;28;20090;-75
2023/03/09 12:48:42;;;;;;;2.00;0.52;;;;;;;15.52;49.75;95951.03;10544786;28;20047;-76
2023/03/09 12:54:07;;;;;;;1.95;0.50;;;;;;;16.25;49.47;95949.56;10515906;28;20119;-74
2023/03/09 12:59:28;;;;;;;1.15;0.20;;;;;;;17.13;47.44;95942.47;10515942;28;20398;-75
2023/03/09 13:05:17;;;;;;;1.63;0.30;;;;;;;16.64;46.98;95964.28;10501933;28;20481;-79
2023/03/09 13:10:38;;;;;;;2.08;0.30;;;;;;;15.56;48.32;95989.78;10544840;28;20051;-79
2023/03/09 13:16:42;;;;;;;3.20;0.30;;;;;;;15.13;50.25;95998.00;10500996;28;20044;-78
2023/03/09 13:22:04;;;;;;;1.60;0.20;;;;;;;14.83;51.33;96005.75;10528610;28;20048;-78
2023/03/09 13:27:27;;;;;;;1.23;0.30;;;;;;;14.80;51.49;96007.09;10513997;28;20044;-78
2023/03/09 13:32:56;;;;;;;4.60;0.40;;;;;;;14.95;51.66;96002.50;10501089;28;20036;-76
2023/03/09 13:38:32;;;;;;;1.42;0.30;;;;;;;14.77;51.67;96016.84;10529387;28;20040;-76
2023/03/09 13:43:54;;;;;;;1.05;0.25;;;;;;;14.53;53.05;96026.09;10499097;28;20101;-74
2023/03/09 13:49:25;;;;;;;1.25;0.38;;;;;;;14.57;53.47;96039.53;10499178;28;20493;-75
2023/03/09 13:54:54;;;;;;;1.27;0.43;;;;;;;14.43;54.73;96031.44;10484089;28;20379;-75
2023/03/09 14:00:19;;;;;;;1.88;0.50;;;;;;;14.09;55.27;96039.69;10475198;28;20045;-75
2023/03/09 14:05:40;;;;;;;2.92;0.50;;;;;;;14.01;56.29;96034.59;10487647;28;20079;-79
2023/03/09 14:11:30;;;;;;;1.33;0.30;;;;;;;14.07;56.18;96041.72;10503270;28;20036;-76
2023/03/09 14:16:51;;;;;;;1.98;0.30;;;;;;;14.37;56.16;96042.50;10482737;28;20044;-76
2023/03/09 14:22:20;;;;;;;1.58;0.40;;;;;;;14.40;55.20;96043.28;10492575;28;20050;-77
2023/03/09 14:27:41;;;;;;;1.67;0.20;;;;;;;14.21;55.46;96042.81;10493739;28;20052;-76
2023/03/09 14:33:04;;;;;;;0.70;0.20;;;;;;;14.02;55.60;96044.41;10456809;28;20399;-77
2023/03/09 14:38:26;;;;;;;1.73;0.52;;;;;;;13.90;55.96;96041.28;10470081;28;20098;-76
2023/03/09 14:43:47;;;;;;;0.93;0.30;;;;;;;14.00;56.09;96044.38;10485945;28;20048;-77
2023/03/09 14:49:10;;;;;;;0.82;0.30;;;;;;;13.75;55.85;96054.19;10457462;28;20048;-77
2023/03/09 14:54:31;;;;;;;0.98;0.20;;;;;;;13.42;56.34;96044.16;10469646;28;20044;-76
2023/03/09 14:59:52;;;;;;;1.30;0.30;;;;;;;13.11;57.01;96048.09;10482795;28;20048;-77
2023/03/09 15:05:15;;;;;;;0.82;0.25;;;;;;;12.89;57.54;96053.72;10485033;28;20060;-77
2023/03/09 15:10:36;;;;;;;0.88;0.20;;;;;;;12.81;58.12;96052.75;10473531;28;20047;-76
2023/03/09 15:15:56;;;;;;;0.90;0.30;;;;;;;12.76;58.03;96045.59;10477643;28;20045;-76
2023/03/09 15:21:17;;;;;;;2.00;0.32;;;;;;;12.61;58.92;96050.72;10477451;28;20051;-76
2023/03/09 15:26:38;;;;;;;1.65;0.20;;;;;;;12.57;59.60;96039.41;10491481;28;20118;-76
2023/03/09 15:32:04;;;;;;;1.45;0.47;;;;;;;12.46;59.59;96039.72;10465171;28;20045;-77
2023/03/09 15:37:26;;;;;;;1.48;0.30;;;;;;;12.48;59.73;96045.38;10480542;28;20048;-77
2023/03/09 15:42:47;;;;;;;4.28;0.68;;;;;;;12.38;60.27;96042.25;10517908;28;20044;-77
2023/03/09 15:48:09;;;;;;;3.25;0.30;;;;;;;12.20;60.04;96045.16;10504999;28;20454;-76
2023/03/09 15:53:30;;;;;;;2.08;0.30;;;;;;;12.02;60.85;96040.38;10475429;28;20114;-76
2023/03/09 15:58:51;;;;;;;2.03;0.50;;;;;;;11.76;61.64;96058.97;10462173;28;20478;-74
2023/03/09 16:04:14;;;;;;;2.40;0.40;;;;;;;11.60;61.95;96067.50;10475694;28;20052;-75
2023/03/09 16:09:35;;;;;;;1.98;0.40;;;;;;;11.49;62.44;96074.09;10462371;28;20044;-75
2023/03/09 16:14:56;;;;;;;1.63;0.30;;;;;;;11.45;63.02;96077.44;10475938;28;20394;-75
2023/03/09 16:20:17;;;;;;;1.67;0.40;;;;;;;11.34;63.81;96086.06;10450197;28;20040;-75
2023/03/09 16:25:38;;;;;;;2.20;0.40;;;;;;;11.16;64.32;96094.47;10462320;28;20056;-76
2023/03/09 16:30:59;;;;;;;2.97;0.60;;;;;;;11.20;64.30;96096.72;10490984;28;20040;-76
2023/03/09 16:36:21;;;;;;;0.98;0.38;;;;;;;11.15;64.79;96104.91;10473840;28;20116;-74
2023/03/09 16:41:42;;;;;;;2.75;0.50;;;;;;;11.18;64.70;96111.28;10461223;28;20060;-77
2023/03/09 16:47:06;;;;;;;2.78;0.40;;;;;;;11.00;65.75;96107.78;10460369;28;20075;-76
2023/03/09 16:52:27;;;;;;;3.47;0.40;;;;;;;10.79;65.34;96123.72;10460993;28;20048;-75
2023/03/09 16:57:48;;;;;;;1.88;0.47;;;;;;;10.57;66.82;96106.78;10473725;28;20302;-76
2023/03/09 17:03:08;;;;;;;3.53;0.80;;;;;;;10.48;66.87;96126.63;10473692;28;20453;-77
2023/03/09 17:08:34;;;;;;;2.40;0.50;;;;;;;10.35;67.44;96099.59;10461248;28;20041;-75
2023/03/09 17:13:54;;;;;;;1.30;0.30;;;;;;;10.26;67.48;96106.88;10460308;28;20437;-75
2023/03/09 17:19:16;;;;;;;1.58;0.32;;;;;;;10.22;67.89;96120.63;10475789;28;20450;-74
2023/03/09 17:24:37;;;;;;;1.58;0.40;;;;;;;10.18;67.98;96126.03;10475372;28;20398;-76
2023/03/09 17:29:58;;;;;;;4.32;1.10;;;;;;;10.21;68.06;96142.19;10458841;28;20044;-76
2023/03/09 17:35:19;;;;;;;3.33;0.70;;;;;;;10.23;68.19;96156.28;10457833;28;20040;-75
2023/03/09 17:40:42;;;;;;;3.75;0.80;;;;;;;10.19;68.44;96161.63;10471812;28;20051;-73
2023/03/09 17:46:05;;;;;;;1.88;0.73;;;;;;;10.23;68.77;96152.75;10471877;28;20075;-73
2023/03/09 17:51:26;;;;;;;3.65;1.00;;;;;;;10.28;68.89;96146.00;10457821;28;20048;-73
2023/03/09 17:56:47;;;;;;;2.83;0.80;;;;;;;10.27;68.43;96144.56;10471105;28;20044;-75
2023/03/09 18:02:10;;;;;;;2.13;0.43;;;;;;;10.28;68.65;96140.44;10475852;28;20052;-75
2023/03/09 18:07:31;;;;;;;2.57;0.90;;;;;;;10.25;68.99;96150.78;10456453;28;20055;-75
2023/03/09 18:12:52;;;;;;;3.42;0.70;;;;;;;10.19;68.75;96152.56;10484215;28;20044;-76
2023/03/09 18:18:13;;;;;;;3.42;0.80;;;;;;;10.11;69.00;96160.56;10456655;28;20044;-77
2023/03/09 18:23:34;;;;;;;4.97;0.65;;;;;;;10.00;69.06;96162.19;10484166;28;20045;-77
2023/03/09 18:28:55;;;;;;;4.07;0.93;;;;;;;9.91;69.36;96157.59;10484049;28;20064;-77
2023/03/09 18:34:15;;;;;;;5.03;0.98;;;;;;;9.84;69.60;96145.47;10456496;28;20427;-77
2023/03/09 18:39:36;;;;;;;6.22;0.90;;;;;;;9.88;69.55;96145.66;10456009;28;20047;-77
2023/03/09 18:44:57;;;;;;;2.85;0.88;;;;;;;9.87;69.85;96130.28;10456284;28;20047;-76
2023/03/09 18:50:19;;;;;;;5.53;1.20;;;;;;;9.84;69.99;96136.38;10455762;28;20040;-75
2023/03/09 18:55:39;;;;;;;7.53;0.90;;;;;;;9.82;70.18;96125.16;10469610;28;20037;-75
2023/03/09 19:01:06;;;;;;;4.70;0.80;;;;;;;9.83;70.05;96140.50;10469350;28;20051;-75
2023/03/09 19:06:29;;;;;;;3.88;1.00;;;;;;;9.79;70.04;96126.41;10474255;28;20079;-75
2023/03/09 19:11:50;;;;;;;2.83;0.73;;;;;;;9.80;70.12;96117.41;10510799;28;20064;-75
2023/03/09 19:17:11;;;;;;;4.38;1.00;;;;;;;9.78;69.79;96120.13;10524330;28;20044;-76
2023/03/09 19:22:32;;;;;;;4.38;1.00;;;;;;;9.80;69.75;96127.84;10479439;28;20410;-77
2023/03/09 19:27:53;;;;;;;3.05;1.20;;;;;;;9.71;69.98;96127.47;10468745;28;20041;-76
2023/03/09 19:33:14;;;;;;;5.05;1.15;;;;;;;9.62;70.41;96127.75;10454897;28;20440;-76
2023/03/09 19:38:35;;;;;;;4.93;1.35;;;;;;;9.61;70.27;96124.25;10468705;28;20056;-75
2023/03/09 19:43:56;;;;;;;3.70;1.42;;;;;;;9.57;70.01;96115.72;10468387;28;20049;-76
2023/03/09 19:49:17;;;;;;;3.42;1.08;;;;;;;9.51;70.08;96125.84;10468752;28;20056;-75
2023/03/09 19:54:38;;;;;;;4.80;1.10;;;;;;;9.42;70.41;96105.97;10482637;28;20040;-76
2023/03/09 20:00:00;;;;;;;3.65;1.20;;;;;;;9.36;70.43;96114.06;10490585;28;20044;-76
2023/03/09 20:05:20;;;;;;;4.05;1.08;;;;;;;9.31;70.54;96115.22;10517228;28;20056;-75
2023/03/09 20:10:41;;;;;;;4.78;1.10;;;;;;;9.27;70.79;96108.75;10503779;28;20044;-75
2023/03/09 20:16:02;;;;;;;4.57;0.90;;;;;;;9.22;70.82;96105.06;10519704;28;20040;-76
2023/03/09 20:21:24;;;;;;;3.30;0.90;;;;;;;9.25;70.53;96106.56;10506292;28;20051;-75
2023/03/09 20:26:46;;;;;;;3.85;0.80;;;;;;;9.31;70.38;96092.22;10517923;28;20040;-76
2023/03/09 20:32:07;;;;;;;6.68;1.00;;;;;;;9.27;70.18;96106.69;10488512;28;20039;-75
2023/03/09 20:37:28;;;;;;;3.10;0.73;;;;;;;9.24;69.82;96099.56;10502348;28;20482;-75
2023/03/09 20:42:49;;;;;;;5.03;0.82;;;;;;;9.25;70.03;96111.44;10501763;28;20040;-75
2023/03/09 20:48:10;;;;;;;4.10;0.93;;;;;;;9.24;70.20;96110.00;10484305;28;20050;-76
2023/03/09 20:53:31;;;;;;;4.53;0.98;;;;;;;9.22;69.79;96096.72;10485508;28;20048;-76
2023/03/09 20:58:53;;;;;;;3.75;0.80;;;;;;;9.22;70.29;96099.50;10499705;28;20497;-77
2023/03/09 21:04:15;;;;;;;2.95;1.02;;;;;;;9.24;70.02;96107.94;10498637;28;20406;-76
2023/03/09 21:09:38;;;;;;;1.92;0.70;;;;;;;9.25;69.80;96112.16;10498095;28;20047;-76
2023/03/09 21:14:59;;;;;;;3.17;0.75;;;;;;;9.25;69.78;96103.09;10501273;28;20393;-76
2023/03/09 21:20:21;;;;;;;3.63;1.20;;;;;;;9.20;69.95;96107.75;10486584;28;20057;-77
2023/03/09 21:25:42;;;;;;;6.20;1.08;;;;;;;9.17;69.87;96100.66;10512831;28;20050;-77
2023/03/09 21:31:04;;;;;;;3.10;0.88;;;;;;;9.09;70.06;96106.56;10501381;28;20093;-77
2023/03/09 21:36:26;;;;;;;4.18;1.00;;;;;;;9.03;70.06;96105.56;10500441;28;20040;-77
2023/03/09 21:41:47;;;;;;;3.17;0.82;;;;;;;9.01;69.75;96099.91;10512969;28;20074;-77
2023/03/09 21:47:08;;;;;;;2.42;0.68;;;;;;;8.91;70.04;96085.50;10484120;28;20056;-77
2023/03/09 21:52:31;;;;;;;6.32;1.30;;;;;;;8.90;70.31;96084.78;10516257;28;20044;-77
2023/03/09 21:57:53;;;;;;;3.35;0.90;;;;;;;8.84;70.46;96085.22;10510939;28;20055;-77
2023/03/09 22:03:17;;;;;;;7.20;1.40;;;;;;;8.82;70.47;96084.41;10513088;28;20105;-76
2023/03/09 22:08:38;;;;;;;5.43;1.75;;;;;;;8.73;70.57;96082.56;10496445;28;20040;-76
2023/03/09 22:13:59;;;;;;;3.63;0.98;;;;;;;8.63;71.26;96090.44;10496672;28;20044;-76
2023/03/09 22:19:22;;;;;;;3.50;1.10;;;;;;;8.65;70.99;96071.06;10501691;28;20082;-76
2023/03/09 22:24:43;;;;;;;4.75;0.70;;;;;;;8.60;70.97;96056.97;10502055;28;20402;-76
2023/03/09 22:30:07;;;;;;;3.50;0.93;;;;;;;8.51;71.14;96055.13;10476542;28;20048;-76
2023/03/09 22:35:28;;;;;;;6.18;1.17;;;;;;;8.49;71.40;96057.06;10511881;28;20040;-76
2023/03/09 22:40:49;;;;;;;5.25;1.10;;;;;;;8.46;71.69;96061.09;10497638;28;20378;-76
2023/03/09 22:46:28;;;;;;;4.13;1.27;;;;;;;8.41;71.38;96062.28;10511396;28;20055;-76
2023/03/09 22:51:49;;;;;;;5.00;1.45;;;;;;;8.37;71.56;96034.97;10497323;28;20052;-76
2023/03/09 22:57:10;;;;;;;3.78;0.90;;;;;;;8.31;71.44;96038.16;10497223;28;20397;-76
2023/03/09 23:02:31;;;;;;;2.45;0.80;;;;;;;8.27;71.97;96029.59;10483017;28;20056;-76
2023/03/09 23:07:55;;;;;;;6.40;1.35;;;;;;;8.29;71.52;96023.44;10496917;28;20063;-76
2023/03/09 23:13:17;;;;;;;3.45;0.80;;;;;;;8.30;71.96;96011.72;10497846;28;20386;-77
2023/03/09 23:18:38;;;;;;;4.70;0.73;;;;;;;8.25;71.76;96003.78;10483459;28;20051;-76
2023/03/09 23:23:59;;;;;;;4.50;0.60;;;;;;;8.27;71.79;96003.88;10510821;28;20504;-76
2023/03/09 23:29:20;;;;;;;3.47;0.77;;;;;;;8.29;71.71;96001.91;10482544;28;20402;-76
2023/03/09 23:34:41;;;;;;;4.40;0.80;;;;;;;8.33;71.63;96002.13;10486994;28;20068;-76
2023/03/09 23:40:04;;;;;;;2.75;0.63;;;;;;;8.32;71.86;95992.34;10518425;28;20040;-76
2023/03/09 23:45:25;;;;;;;5.47;1.10;;;;;;;8.34;71.57;95983.38;10518532;28;20040;-76
2023/03/09 23:50:46;;;;;;;6.60;0.93;;;;;;;8.31;71.45;95973.50;10518385;28;20393;-76
2023/03/09 23:56:10;;;;;;;5.72;1.08;;;;;;;8.21;71.09;95970.25;10518113;28;20482;-76
